createdAt,value
2023-11-12T00:01:45.286Z,100547.01
2023-11-12T00:04:17.286Z,100562.94
2023-11-12T00:06:48.966Z,100562.69
2023-11-12T00:09:20.336Z,100572.42
2023-11-12T00:11:51.768Z,100575.69
2023-11-12T00:14:22.927Z,100583.36
2023-11-12T00:16:54.217Z,100587.52
2023-11-12T00:19:25.501Z,100590.29
2023-11-12T00:21:58.461Z,100587.94
2023-11-12T00:24:30.080Z,100575.52
2023-11-12T00:27:01.192Z,100573.64
2023-11-12T00:29:32.978Z,100575.10
2023-11-12T00:32:05.056Z,100575.86
2023-11-12T00:34:37.486Z,100576.08
2023-11-12T00:37:08.959Z,100570.66
2023-11-12T00:39:44.991Z,100572.31
2023-11-12T00:42:16.456Z,100576.42
2023-11-12T00:44:48.118Z,100587.75
2023-11-12T00:47:19.145Z,100581.15
2023-11-12T00:49:50.184Z,100563.36
2023-11-12T00:52:21.190Z,100572.88
2023-11-12T00:54:52.324Z,100588.38
2023-11-12T00:57:23.888Z,100593.33
2023-11-12T00:59:55.371Z,100591.28
2023-11-12T01:02:28.976Z,100594.11
2023-11-12T01:05:00.699Z,100586.98
2023-11-12T01:07:31.930Z,100578.74
2023-11-12T01:10:03.412Z,100583.73
2023-11-12T01:12:34.914Z,100590.27
2023-11-12T01:15:07.493Z,100594.79
2023-11-12T01:17:39.883Z,100589.98
2023-11-12T01:20:14.119Z,100576.14
2023-11-12T01:22:45.997Z,100558.85
2023-11-12T01:25:17.673Z,100540.20
2023-11-12T01:27:49.240Z,100544.72
2023-11-12T01:30:21.149Z,100566.38
2023-11-12T01:32:53.513Z,100559.09
2023-11-12T01:35:24.720Z,100538.49
2023-11-12T01:37:56.123Z,100522.55
2023-11-12T01:40:27.347Z,100525.42
2023-11-12T01:42:58.482Z,100528.77
2023-11-12T01:45:29.788Z,100535.45
2023-11-12T01:48:01.844Z,100540.56
2023-11-12T01:50:33.619Z,100547.86
2023-11-12T01:53:05.837Z,100549.19
2023-11-12T01:55:38.045Z,100549.88
2023-11-12T01:58:11.175Z,100553.80
2023-11-12T02:00:42.546Z,100554.02
2023-11-12T02:03:18.455Z,100563.04
2023-11-12T02:05:49.638Z,100571.33
2023-11-12T02:08:23.236Z,100571.77
2023-11-12T02:10:54.968Z,100580.41
2023-11-12T02:13:26.543Z,100585.66
2023-11-12T02:15:58.446Z,100589.84
2023-11-12T02:18:29.876Z,100586.96
2023-11-12T02:21:02.266Z,100585.33
2023-11-12T02:23:34.384Z,100578.69
2023-11-12T02:26:05.645Z,100558.33
2023-11-12T02:28:37.041Z,100543.98
2023-11-12T02:31:08.472Z,100538.36
2023-11-12T02:33:40.503Z,100499.14
2023-11-12T02:36:12.574Z,100410.77
2023-11-12T02:38:43.879Z,100367.83
2023-11-12T02:41:14.925Z,100410.95
2023-11-12T02:43:47.269Z,100488.94
2023-11-12T02:46:18.759Z,100495.80
2023-11-12T02:49:13.612Z,100489.89
2023-11-12T02:51:46.459Z,100490.38
2023-11-12T02:54:18.546Z,100493.86
2023-11-12T02:56:49.869Z,100497.73
2023-11-12T02:59:21.464Z,100495.20
2023-11-12T03:01:52.820Z,100487.58
2023-11-12T03:04:23.962Z,100481.17
2023-11-12T03:06:55.231Z,100456.77
2023-11-12T03:09:26.920Z,100438.34
2023-11-12T03:11:58.747Z,100431.13
2023-11-12T03:14:29.986Z,100422.95
2023-11-12T03:17:00.996Z,100409.91
2023-11-12T03:19:32.458Z,100405.27
2023-11-12T03:22:03.693Z,100404.60
2023-11-12T03:24:36.878Z,100429.91
2023-11-12T03:27:09.686Z,100443.79
2023-11-12T03:29:40.702Z,100445.06
2023-11-12T03:32:12.021Z,100451.17
2023-11-12T03:34:43.395Z,100448.98
2023-11-12T03:37:14.908Z,100461.98
2023-11-12T03:39:46.995Z,100470.63
2023-11-12T03:42:18.708Z,100461.06
2023-11-12T03:44:50.730Z,100457.39
2023-11-12T03:47:22.190Z,100455.59
2023-11-12T03:49:53.730Z,100453.02
2023-11-12T03:52:25.134Z,100451.45
2023-11-12T03:54:56.705Z,100457.77
2023-11-12T03:57:28.484Z,100465.96
2023-11-12T03:59:59.690Z,100471.03
2023-11-12T04:02:30.685Z,100476.10
2023-11-12T04:05:02.760Z,100482.67
2023-11-12T04:07:33.992Z,100488.55
2023-11-12T04:10:06.737Z,100481.30
2023-11-12T04:12:38.070Z,100474.63
2023-11-12T04:15:10.837Z,100471.94
2023-11-12T04:17:42.021Z,100474.21
2023-11-12T04:20:16.198Z,100468.38
2023-11-12T04:22:47.940Z,100465.43
2023-11-12T04:25:19.744Z,100460.77
2023-11-12T04:27:51.066Z,100453.16
2023-11-12T04:30:22.636Z,100454.09
2023-11-12T04:32:53.964Z,100448.80
2023-11-12T04:35:24.950Z,100445.06
2023-11-12T04:37:56.207Z,100445.38
2023-11-12T04:40:27.451Z,100444.77
2023-11-12T04:42:59.016Z,100454.53
2023-11-12T04:45:30.335Z,100455.94
2023-11-12T04:48:01.783Z,100450.14
2023-11-12T04:50:33.032Z,100449.27
2023-11-12T04:53:04.116Z,100457.28
2023-11-12T04:55:35.418Z,100459.30
2023-11-12T04:58:08.373Z,100458.48
2023-11-12T05:00:42.226Z,100459.42
2023-11-12T05:03:13.448Z,100455.16
2023-11-12T05:05:44.884Z,100452.28
2023-11-12T05:08:16.081Z,100449.38
2023-11-12T05:10:47.300Z,100449.80
2023-11-12T05:13:18.451Z,100444.54
2023-11-12T05:15:49.444Z,100447.28
2023-11-12T05:18:20.982Z,100448.18
2023-11-12T05:20:52.386Z,100449.39
2023-11-12T05:23:23.878Z,100449.68
2023-11-12T05:25:56.250Z,100454.82
2023-11-12T05:28:28.739Z,100458.85
2023-11-12T05:31:00.251Z,100467.08
2023-11-12T05:33:32.255Z,100473.14
2023-11-12T05:36:04.198Z,100488.77
2023-11-12T05:38:35.728Z,100498.40
2023-11-12T05:41:07.629Z,100497.26
2023-11-12T05:43:38.923Z,100493.16
2023-11-12T05:46:10.292Z,100499.93
2023-11-12T05:48:41.517Z,100498.92
2023-11-12T05:51:12.676Z,100485.13
2023-11-12T05:53:44.227Z,100476.70
2023-11-12T05:56:15.777Z,100469.17
2023-11-12T05:58:47.222Z,100456.67
2023-11-12T06:01:20.395Z,100445.97
2023-11-12T06:03:51.785Z,100440.36
2023-11-12T06:06:23.394Z,100451.27
2023-11-12T06:08:54.764Z,100466.23
2023-11-12T06:11:26.589Z,100461.92
2023-11-12T06:13:57.999Z,100458.48
2023-11-12T06:16:29.851Z,100461.63
2023-11-12T06:19:01.219Z,100454.87
2023-11-12T06:21:32.232Z,100455.20
2023-11-12T06:24:05.834Z,100465.63
2023-11-12T06:26:37.784Z,100466.30
2023-11-12T06:29:10.190Z,100467.75
2023-11-12T06:31:41.911Z,100474.15
2023-11-12T06:34:13.061Z,100476.37
2023-11-12T06:36:44.328Z,100476.70
2023-11-12T06:39:15.825Z,100481.48
2023-11-12T06:41:47.239Z,100476.05
2023-11-12T06:44:18.250Z,100473.15
2023-11-12T06:46:50.051Z,100477.60
2023-11-12T06:49:21.392Z,100478.38
2023-11-12T06:51:52.649Z,100474.41
2023-11-12T06:54:23.971Z,100486.05
2023-11-12T06:56:56.462Z,100493.77
2023-11-12T06:59:29.161Z,100501.89
2023-11-12T07:02:00.547Z,100498.75
2023-11-12T07:04:32.012Z,100499.27
2023-11-12T07:07:13.871Z,100508.23
2023-11-12T07:09:48.493Z,100514.22
2023-11-12T07:12:19.744Z,100521.69
2023-11-12T07:14:51.117Z,100519.71
2023-11-12T07:17:22.558Z,100528.78
2023-11-12T07:19:54.352Z,100534.36
2023-11-12T07:22:26.376Z,100531.95
2023-11-12T07:24:58.956Z,100539.23
2023-11-12T07:27:33.347Z,100542.63
2023-11-12T07:30:04.982Z,100549.59
2023-11-12T07:32:35.930Z,100551.95
2023-11-12T07:35:09.577Z,100553.86
2023-11-12T07:37:42.282Z,100549.59
2023-11-12T07:40:16.989Z,100551.00
2023-11-12T07:42:48.482Z,100547.61
2023-11-12T07:45:25.395Z,100550.70
2023-11-12T07:47:59.961Z,100552.45
2023-11-12T07:50:31.394Z,100565.70
2023-11-12T07:53:04.585Z,100578.55
2023-11-12T07:55:35.700Z,100579.90
2023-11-12T07:58:07.252Z,100579.84
2023-11-12T08:00:38.441Z,100580.69
2023-11-12T08:03:09.770Z,100576.04
2023-11-12T08:05:42.082Z,100567.61
2023-11-12T08:08:13.195Z,100559.81
2023-11-12T08:10:44.384Z,100544.60
2023-11-12T08:13:17.912Z,100538.42
2023-11-12T08:15:49.644Z,100534.00
2023-11-12T08:18:21.190Z,100524.72
2023-11-12T08:20:52.683Z,100521.85
2023-11-12T08:23:23.852Z,100521.05
2023-11-12T08:25:56.367Z,100528.52
2023-11-12T08:28:28.499Z,100531.97
2023-11-12T08:30:59.588Z,100529.33
2023-11-12T08:33:30.797Z,100532.38
2023-11-12T08:36:02.144Z,100541.72
2023-11-12T08:38:32.985Z,100548.96
2023-11-12T08:41:05.823Z,100545.16
2023-11-12T08:43:37.068Z,100543.46
2023-11-12T08:46:08.635Z,100548.28
2023-11-12T08:48:44.132Z,100556.65
2023-11-12T08:51:16.238Z,100557.69
2023-11-12T08:53:47.624Z,100553.23
2023-11-12T08:56:18.815Z,100550.23
2023-11-12T08:58:50.060Z,100548.66
2023-11-12T09:01:21.243Z,100550.49
2023-11-12T09:03:53.587Z,100546.03
2023-11-12T09:06:25.137Z,100539.88
2023-11-12T09:08:56.666Z,100536.03
2023-11-12T09:11:28.049Z,100539.25
2023-11-12T09:14:02.016Z,100536.05
2023-11-12T09:16:33.405Z,100531.58
2023-11-12T09:19:07.121Z,100533.06
2023-11-12T09:21:38.285Z,100534.02
2023-11-12T09:24:11.513Z,100530.98
2023-11-12T09:26:43.511Z,100525.98
2023-11-12T09:29:14.574Z,100532.05
2023-11-12T09:31:45.699Z,100540.89
2023-11-12T09:34:17.319Z,100548.21
2023-11-12T09:36:48.485Z,100554.81
2023-11-12T09:39:20.998Z,100553.27
2023-11-12T09:41:57.066Z,100553.20
2023-11-12T09:44:32.434Z,100552.48
2023-11-12T09:47:30.885Z,100557.33
2023-11-12T09:50:07.518Z,100563.33
2023-11-12T09:52:39.261Z,100562.35
2023-11-12T09:55:12.261Z,100566.66
2023-11-12T09:57:43.408Z,100565.56
2023-11-12T10:00:17.895Z,100568.63
2023-11-12T10:02:49.396Z,100571.89
2023-11-12T10:05:20.630Z,100579.74
2023-11-12T10:07:51.840Z,100581.35
2023-11-12T10:10:28.276Z,100581.88
2023-11-12T10:13:00.168Z,100577.97
2023-11-12T10:15:35.071Z,100569.97
2023-11-12T10:18:07.586Z,100572.41
2023-11-12T10:20:42.070Z,100572.53
2023-11-12T10:23:32.617Z,100576.30
2023-11-12T10:26:14.456Z,100582.52
2023-11-12T10:28:45.696Z,100582.07
2023-11-12T10:31:16.869Z,100583.14
2023-11-12T10:34:02.570Z,100584.84
2023-11-12T10:36:33.974Z,100582.20
2023-11-12T10:39:12.547Z,100586.23
2023-11-12T10:41:43.876Z,100587.50
2023-11-12T10:44:16.045Z,100590.45
2023-11-12T10:46:54.182Z,100592.74
2023-11-12T10:49:27.462Z,100589.98
2023-11-12T10:51:59.283Z,100583.23
2023-11-12T10:54:34.002Z,100582.10
2023-11-12T10:57:07.915Z,100579.62
2023-11-12T10:59:42.273Z,100583.89
2023-11-12T11:02:19.975Z,100595.55
2023-11-12T11:04:51.605Z,100599.29
2023-11-12T11:07:24.694Z,100589.50
2023-11-12T11:09:56.169Z,100582.89
2023-11-12T11:12:27.372Z,100573.83
2023-11-12T11:15:19.198Z,100572.39
2023-11-12T11:17:50.440Z,100576.64
2023-11-12T11:20:22.033Z,100579.29
2023-11-12T11:22:52.961Z,100577.89
2023-11-12T11:25:27.868Z,100576.17
2023-11-12T11:28:22.474Z,100580.60
2023-11-12T11:31:14.958Z,100582.44
2023-11-12T11:33:52.656Z,100575.84
2023-11-12T11:36:25.545Z,100571.86
2023-11-12T11:39:30.213Z,100565.00
2023-11-12T11:42:16.694Z,100559.19
2023-11-12T11:44:56.437Z,100567.08
2023-11-12T11:47:29.406Z,100575.31
2023-11-12T11:50:27.222Z,100569.97
2023-11-12T11:53:18.525Z,100572.88
2023-11-12T11:55:56.060Z,100576.85
2023-11-12T11:58:31.515Z,100574.52
2023-11-12T12:01:03.240Z,100568.33
2023-11-12T12:03:34.328Z,100574.23
2023-11-12T12:06:18.111Z,100574.38
2023-11-12T12:08:58.912Z,100564.89
2023-11-12T12:11:29.860Z,100560.44
2023-11-12T12:14:01.779Z,100565.84
2023-11-12T12:16:33.982Z,100570.75
2023-11-12T12:19:05.450Z,100573.59
2023-11-12T12:21:37.676Z,100574.76
2023-11-12T12:24:10.562Z,100575.41
2023-11-12T12:26:42.392Z,100574.73
2023-11-12T12:29:18.000Z,100582.45
2023-11-12T12:31:50.651Z,100586.38
2023-11-12T12:34:25.657Z,100586.90
2023-11-12T12:37:06.680Z,100590.75
2023-11-12T12:39:55.839Z,100583.98
2023-11-12T12:42:29.549Z,100577.20
2023-11-12T12:45:00.972Z,100581.52
2023-11-12T12:47:37.894Z,100587.10
2023-11-12T12:50:26.833Z,100597.07
2023-11-12T12:53:15.136Z,100602.70
2023-11-12T12:55:47.656Z,100605.91
2023-11-12T12:58:20.771Z,100605.99
2023-11-12T13:00:54.771Z,100598.71
2023-11-12T13:03:31.539Z,100599.99
2023-11-12T13:06:02.890Z,100598.11
2023-11-12T13:08:34.883Z,100602.23
2023-11-12T13:11:06.780Z,100615.48
2023-11-12T13:13:38.329Z,100625.53
2023-11-12T13:16:12.413Z,100627.49
2023-11-12T13:18:43.664Z,100634.45
2023-11-12T13:21:15.474Z,100639.21
2023-11-12T13:23:50.479Z,100640.42
2023-11-12T13:26:23.422Z,100644.31
2023-11-12T13:28:58.024Z,100657.92
2023-11-12T13:34:01.943Z,100661.91
2023-11-12T13:36:33.777Z,100660.27
2023-11-12T13:39:05.995Z,100657.39
2023-11-12T13:41:38.795Z,100651.31
2023-11-12T13:44:10.562Z,100656.51
2023-11-12T13:46:42.620Z,100664.45
2023-11-12T13:49:14.046Z,100656.30
2023-11-12T13:51:46.475Z,100655.55
2023-11-12T13:54:17.917Z,100661.90
2023-11-12T13:56:50.504Z,100662.20
2023-11-12T13:59:22.345Z,100672.70
2023-11-12T14:01:53.720Z,100675.25
2023-11-12T14:04:27.982Z,100670.82
2023-11-12T14:06:59.450Z,100673.66
2023-11-12T14:09:34.399Z,100675.64
2023-11-12T14:12:08.258Z,100675.11
2023-11-12T14:14:39.682Z,100685.47
2023-11-12T14:17:11.038Z,100689.77
2023-11-12T14:19:44.244Z,100690.55
2023-11-12T14:22:15.879Z,100689.85
2023-11-12T14:24:47.080Z,100688.91
2023-11-12T14:27:18.537Z,100686.05
2023-11-12T14:29:51.183Z,100678.37
2023-11-12T14:32:22.280Z,100666.89
2023-11-12T14:34:53.138Z,100666.14
2023-11-12T14:37:26.092Z,100670.35
2023-11-12T14:39:59.100Z,100662.77
2023-11-12T14:42:31.385Z,100657.65
2023-11-12T14:45:02.693Z,100653.20
2023-11-12T14:47:36.684Z,100649.98
2023-11-12T14:50:09.620Z,100655.48
2023-11-12T14:52:42.904Z,100657.59
2023-11-12T14:55:24.436Z,100655.08
2023-11-12T14:57:58.395Z,100665.34
2023-11-12T15:00:30.823Z,100669.77
2023-11-12T15:03:06.257Z,100678.86
2023-11-12T15:05:38.584Z,100686.52
2023-11-12T15:08:10.565Z,100688.77
2023-11-12T15:10:43.317Z,100710.20
2023-11-12T15:13:14.246Z,100724.69
2023-11-12T15:15:45.861Z,100730.31
2023-11-12T15:18:17.414Z,100733.63
2023-11-12T15:20:48.406Z,100722.00
2023-11-12T15:23:19.662Z,100732.27
2023-11-12T15:25:51.722Z,100736.88
2023-11-12T15:28:24.254Z,100741.43
2023-11-12T15:30:55.678Z,100768.05
2023-11-12T15:33:27.035Z,100785.29
2023-11-12T15:35:58.007Z,100779.60
2023-11-12T15:38:29.302Z,100788.84
2023-11-12T15:41:00.461Z,100790.17
2023-11-12T15:43:32.068Z,100777.68
2023-11-12T15:46:04.733Z,100781.05
2023-11-12T15:48:36.263Z,100788.71
2023-11-12T15:51:11.205Z,100790.52
2023-11-12T15:53:42.900Z,100796.74
2023-11-12T15:56:16.384Z,100801.23
2023-11-12T15:58:47.428Z,100815.85
2023-11-12T16:01:18.880Z,100815.66
2023-11-12T16:03:50.659Z,100813.34
2023-11-12T16:06:22.081Z,100816.92
2023-11-12T16:08:56.507Z,100817.86
2023-11-12T16:11:30.336Z,100817.64
2023-11-12T16:14:02.209Z,100821.83
2023-11-12T16:16:33.442Z,100827.65
2023-11-12T16:19:05.900Z,100825.67
2023-11-12T16:21:37.338Z,100820.34
2023-11-12T16:24:11.459Z,100832.46
2023-11-12T16:26:43.281Z,100839.44
2023-11-12T16:29:14.479Z,100843.73
2023-11-12T16:31:46.029Z,100857.87
2023-11-12T16:34:17.057Z,100857.77
2023-11-12T16:36:49.343Z,100872.95
2023-11-12T16:39:21.143Z,100880.81
2023-11-12T16:41:52.033Z,100877.20
2023-11-12T16:44:24.565Z,100866.96
2023-11-12T16:46:55.799Z,100858.23
2023-11-12T16:49:27.646Z,100843.99
2023-11-12T16:51:59.329Z,100856.16
2023-11-12T16:54:30.273Z,100869.30
2023-11-12T16:57:02.117Z,100881.27
2023-11-12T16:59:33.514Z,100884.08
2023-11-12T17:02:04.923Z,100880.52
2023-11-12T17:04:36.285Z,100881.13
2023-11-12T17:07:09.872Z,100880.21
2023-11-12T17:09:41.941Z,100891.44
2023-11-12T17:12:14.062Z,100894.98
2023-11-12T17:14:45.623Z,100897.95
2023-11-12T17:17:17.090Z,100903.33
2023-11-12T17:19:49.440Z,100904.17
2023-11-12T17:22:22.304Z,100907.50
2023-11-12T17:24:54.666Z,100917.50
2023-11-12T17:27:26.565Z,100915.49
2023-11-12T17:29:58.055Z,100919.21
2023-11-12T17:32:29.066Z,100917.33
2023-11-12T17:35:00.669Z,100926.31
2023-11-12T17:37:31.749Z,100920.98
2023-11-12T17:40:06.452Z,100921.25
2023-11-12T17:42:38.585Z,100923.52
2023-11-12T17:45:12.460Z,100926.44
2023-11-12T17:47:43.658Z,100927.22
2023-11-12T17:50:15.240Z,100932.18
2023-11-12T17:52:46.865Z,100944.48
2023-11-12T17:55:18.731Z,100949.27
2023-11-12T17:57:50.616Z,100957.78
2023-11-12T18:00:23.190Z,100961.17
2023-11-12T18:02:56.604Z,100961.67
2023-11-12T18:05:28.223Z,100964.52
2023-11-12T18:07:59.641Z,100963.95
2023-11-12T18:10:32.434Z,100971.94
2023-11-12T18:13:04.039Z,100971.57
2023-11-12T18:15:35.401Z,100968.30
2023-11-12T18:18:07.223Z,100967.36
2023-11-12T18:20:38.283Z,100973.35
2023-11-12T18:23:09.566Z,100983.62
2023-11-12T18:25:40.621Z,100985.27
2023-11-12T18:28:12.103Z,100983.82
2023-11-12T18:30:48.827Z,100994.67
2023-11-12T18:33:21.255Z,101009.83
2023-11-12T18:35:52.482Z,101012.72
2023-11-12T18:38:23.372Z,101006.91
2023-11-12T18:40:54.894Z,101009.66
2023-11-12T18:43:26.323Z,101015.36
2023-11-12T18:46:02.063Z,101017.16
2023-11-12T18:48:33.570Z,101015.25
2023-11-12T18:51:05.326Z,101015.26
2023-11-12T18:53:36.723Z,101018.67
2023-11-12T18:56:11.521Z,101029.75
2023-11-12T18:58:43.568Z,101027.40
2023-11-12T19:01:14.698Z,101028.75
2023-11-12T19:03:47.334Z,101031.63
2023-11-12T19:06:18.910Z,101034.67
2023-11-12T19:08:50.150Z,101031.08
2023-11-12T19:11:21.261Z,101029.73
2023-11-12T19:13:52.486Z,101036.26
2023-11-12T19:16:23.936Z,101037.73
2023-11-12T19:18:59.980Z,101029.80
2023-11-12T19:21:31.578Z,101025.40
2023-11-12T19:24:04.165Z,101026.63
2023-11-12T19:26:36.193Z,101027.02
2023-11-12T19:29:07.665Z,101028.34
2023-11-12T19:31:39.246Z,101040.17
2023-11-12T19:34:11.832Z,101049.77
2023-11-12T19:36:44.218Z,101053.78
2023-11-12T19:39:15.487Z,101055.05
2023-11-12T19:41:46.943Z,101052.73
2023-11-12T19:44:20.925Z,101056.38
2023-11-12T19:46:52.151Z,101058.30
2023-11-12T19:49:23.871Z,101064.30
2023-11-12T19:51:55.047Z,101071.89
2023-11-12T19:54:26.183Z,101074.70
2023-11-12T19:56:57.312Z,101080.13
2023-11-12T19:59:29.861Z,101080.46
2023-11-12T20:02:01.254Z,101080.71
2023-11-12T20:04:32.624Z,101095.59
2023-11-12T20:07:04.992Z,101095.55
2023-11-12T20:09:38.243Z,101102.52
2023-11-12T20:12:13.671Z,101103.09
2023-11-12T20:14:45.605Z,101108.11
2023-11-12T20:17:16.901Z,101112.94
2023-11-12T20:19:47.900Z,101110.48
2023-11-12T20:22:19.352Z,101119.20
2023-11-12T20:24:51.378Z,101125.30
2023-11-12T20:27:22.564Z,101122.63
2023-11-12T20:29:58.042Z,101119.59
2023-11-12T20:32:30.283Z,101121.44
2023-11-12T20:35:01.445Z,101124.68
2023-11-12T20:37:32.396Z,101117.73
2023-11-12T20:40:08.862Z,101118.23
2023-11-12T20:42:42.966Z,101116.38
2023-11-12T20:45:18.329Z,101116.00
2023-11-12T20:47:53.549Z,101117.68
2023-11-12T20:50:25.014Z,101125.25
2023-11-12T20:52:57.699Z,101117.89
2023-11-12T20:55:28.999Z,101114.11
2023-11-12T20:58:00.151Z,101111.58
2023-11-12T21:00:32.344Z,101114.48
2023-11-12T21:03:03.547Z,101112.15
2023-11-12T21:05:36.528Z,101111.56
2023-11-12T21:08:08.286Z,101114.70
2023-11-12T21:10:39.706Z,101107.83
2023-11-12T21:13:11.246Z,101102.89
2023-11-12T21:15:44.106Z,101103.71
2023-11-12T21:18:15.562Z,101106.19
2023-11-12T21:20:47.052Z,101111.45
2023-11-12T21:23:18.151Z,101109.38
2023-11-12T21:25:53.371Z,101110.17
2023-11-12T21:28:24.735Z,101106.14
2023-11-12T21:30:56.705Z,101103.59
2023-11-12T21:33:27.885Z,101105.92
2023-11-12T21:36:00.587Z,101101.61
2023-11-12T21:38:32.010Z,101101.31
2023-11-12T21:41:03.037Z,101106.13
2023-11-12T21:43:35.890Z,101114.73
2023-11-12T21:46:08.761Z,101118.35
2023-11-12T21:48:40.347Z,101106.96
2023-11-12T21:51:11.881Z,101100.86
2023-11-12T21:53:43.138Z,101106.09
2023-11-12T21:56:16.564Z,101118.45
2023-11-12T21:58:47.477Z,101119.92
2023-11-12T22:01:20.092Z,101115.23
2023-11-12T22:03:51.806Z,101111.31
2023-11-12T22:06:23.534Z,101121.50
2023-11-12T22:08:56.316Z,101118.38
2023-11-12T22:11:27.367Z,101105.77
2023-11-12T22:13:58.458Z,101110.91
2023-11-12T22:16:29.422Z,101121.58
2023-11-12T22:19:01.067Z,101127.16
2023-11-12T22:21:32.428Z,101123.12
2023-11-12T22:24:03.589Z,101120.34
2023-11-12T22:26:35.257Z,101128.24
2023-11-12T22:29:07.516Z,101128.36
2023-11-12T22:31:38.662Z,101126.25
2023-11-12T22:34:09.878Z,101118.77
2023-11-12T22:36:42.035Z,101121.97
2023-11-12T22:39:13.627Z,101130.80
2023-11-12T22:41:44.646Z,101145.06
2023-11-12T22:44:16.200Z,101151.67
2023-11-12T22:46:51.585Z,101153.48
2023-11-12T22:49:22.933Z,101161.27
2023-11-12T22:51:54.089Z,101163.61
2023-11-12T22:54:25.529Z,101163.14
2023-11-12T22:56:56.563Z,101163.25
2023-11-12T22:59:27.632Z,101167.16
2023-11-12T23:01:59.127Z,101167.94
2023-11-12T23:04:30.660Z,101167.02
2023-11-12T23:07:02.493Z,101169.58
2023-11-12T23:09:35.599Z,101166.15
2023-11-12T23:12:09.929Z,101156.85
2023-11-12T23:14:41.227Z,101155.05
2023-11-12T23:17:14.211Z,101159.20
2023-11-12T23:19:45.553Z,101146.30
2023-11-12T23:22:16.992Z,101138.06
2023-11-12T23:24:48.438Z,101137.42
2023-11-12T23:27:19.919Z,101140.36
2023-11-12T23:29:51.155Z,101136.66
2023-11-12T23:32:22.737Z,101136.15
2023-11-12T23:34:54.133Z,101141.05
2023-11-12T23:37:25.346Z,101140.14
2023-11-12T23:39:57.010Z,101133.20
2023-11-12T23:42:28.628Z,101119.28
2023-11-12T23:44:59.605Z,101121.16
2023-11-12T23:47:30.756Z,101122.50
2023-11-12T23:50:02.041Z,101119.65
2023-11-12T23:52:33.183Z,101124.98
2023-11-12T23:55:06.914Z,101124.69
2023-11-12T23:57:39.677Z,101127.22
